Time;durP1;ratioP1;P1;durP2;ratioP2;P2;SDS_P1;SDS_P2;PMS_P1;PMS_P2;Temp;Humidity;BMP_temperature;BMP_pressure;BME280_temperature;BME280_humidity;BME280_pressure;Samples;Min_cycle;Max_cycle;Signal;HPM_P1;HPM_P2
2023/04/10 00:00:59;;;;;;;0.60;0.55;;;8.60;99.90;;;;;;5041963;28;20212;-70
2023/04/10 00:03:26;;;;;;;1.73;0.98;;;8.60;99.90;;;;;;5046352;28;20204;-71
2023/04/10 00:05:56;;;;;;;1.13;1.02;;;8.60;99.90;;;;;;5046640;28;20230;-70
2023/04/10 00:08:26;;;;;;;0.70;0.70;;;8.70;99.90;;;;;;5046717;28;20214;-70
2023/04/10 00:10:54;;;;;;;0.80;0.80;;;8.70;99.90;;;;;;5045542;28;20295;-71
2023/04/10 00:13:23;;;;;;;0.77;0.75;;;8.70;99.90;;;;;;5046296;28;20266;-71
2023/04/10 00:15:50;;;;;;;0.80;0.75;;;8.70;99.90;;;;;;5046598;28;20227;-70
2023/04/10 00:18:18;;;;;;;0.88;0.80;;;8.70;99.90;;;;;;5047150;28;20653;-70
2023/04/10 00:20:46;;;;;;;1.52;1.42;;;8.70;99.90;;;;;;5042310;28;20234;-70
2023/04/10 00:23:14;;;;;;;1.17;0.82;;;8.70;99.90;;;;;;5046847;28;20626;-70
2023/04/10 00:25:43;;;;;;;1.05;0.90;;;8.60;99.90;;;;;;5051550;28;20308;-71
2023/04/10 00:28:11;;;;;;;0.70;0.68;;;8.50;99.90;;;;;;5046363;28;20230;-70
2023/04/10 00:30:39;;;;;;;3.08;0.70;;;8.50;99.90;;;;;;5051583;22;20308;-66
2023/04/10 00:33:07;;;;;;;2.78;1.23;;;8.50;99.90;;;;;;5007692;28;20214;-67
2023/04/10 00:35:35;;;;;;;1.33;1.23;;;8.40;99.90;;;;;;5013517;28;20609;-66
2023/04/10 00:38:03;;;;;;;3.17;2.13;;;8.40;99.90;;;;;;5012937;28;20209;-67
2023/04/10 00:40:30;;;;;;;1.30;1.20;;;8.40;99.90;;;;;;5005741;28;20228;-67
2023/04/10 00:43:00;;;;;;;1.23;0.65;;;8.30;99.90;;;;;;5011230;28;20205;-67
2023/04/10 00:45:28;;;;;;;1.73;1.35;;;8.20;99.90;;;;;;5002019;28;20281;-66
2023/04/10 00:47:57;;;;;;;1.17;1.08;;;8.30;99.90;;;;;;5002938;28;20304;-65
2023/04/10 00:50:25;;;;;;;1.40;1.20;;;8.30;99.90;;;;;;5004539;28;20221;-66
2023/04/10 00:52:53;;;;;;;1.10;1.00;;;8.30;99.90;;;;;;5005309;28;20216;-66
2023/04/10 00:55:21;;;;;;;1.33;0.82;;;8.20;99.90;;;;;;5007212;28;20263;-66
2023/04/10 00:57:49;;;;;;;0.90;0.70;;;8.20;99.90;;;;;;5013262;28;20573;-67
2023/04/10 01:00:20;;;;;;;4.32;1.25;;;8.30;99.90;;;;;;4997771;28;20328;-66
2023/04/10 01:02:48;;;;;;;1.08;0.90;;;8.30;99.90;;;;;;5012456;28;20724;-66
2023/04/10 01:05:16;;;;;;;2.30;1.73;;;8.30;99.90;;;;;;5009100;28;20247;-66
2023/04/10 01:07:56;;;;;;;1.35;1.10;;;8.30;99.90;;;;;;5002091;28;20289;-66
2023/04/10 01:10:34;;;;;;;1.02;0.73;;;8.40;99.90;;;;;;4994290;28;20217;-66
2023/04/10 01:13:11;;;;;;;0.60;0.60;;;8.40;99.90;;;;;;4995292;28;20213;-66
2023/04/10 01:15:49;;;;;;;2.17;1.92;;;8.30;99.90;;;;;;5013048;28;20311;-65
2023/04/10 01:18:22;;;;;;;1.67;1.30;;;8.30;99.90;;;;;;4997293;28;20434;-66
2023/04/10 01:20:50;;;;;;;1.85;1.45;;;8.30;99.90;;;;;;5012829;28;20225;-66
2023/04/10 01:24:00;;;;;;;0.80;0.80;;;8.30;99.90;;;;;;5000981;28;20201;-66
2023/04/10 01:26:50;;;;;;;1.33;1.23;;;8.20;99.90;;;;;;4998328;28;20304;-66
2023/04/10 01:29:21;;;;;;;1.35;1.25;;;8.20;99.90;;;;;;5005078;28;20762;-66
2023/04/10 01:31:55;;;;;;;1.25;1.15;;;8.20;99.90;;;;;;5007912;28;20213;-66
2023/04/10 01:34:28;;;;;;;2.45;1.83;;;8.10;99.90;;;;;;5006675;28;20224;-66
2023/04/10 01:37:01;;;;;;;1.25;1.00;;;8.10;99.90;;;;;;4995690;28;20220;-66
2023/04/10 01:39:31;;;;;;;0.90;0.80;;;8.00;99.90;;;;;;5007692;28;20320;-67
2023/04/10 01:42:00;;;;;;;0.95;0.70;;;8.00;99.90;;;;;;5004384;28;20611;-66
2023/04/10 01:44:31;;;;;;;0.95;0.85;;;8.00;99.90;;;;;;5008881;28;20279;-66
2023/04/10 01:47:01;;;;;;;1.33;1.15;;;8.00;99.90;;;;;;5009847;28;20736;-66
2023/04/10 01:49:50;;;;;;;1.90;1.13;;;7.80;99.90;;;;;;5011341;28;20240;-67
2023/04/10 01:52:19;;;;;;;1.55;1.13;;;7.80;99.90;;;;;;5004497;28;20281;-66
2023/04/10 01:54:48;;;;;;;1.50;1.30;;;7.90;99.90;;;;;;4995879;28;20221;-66
2023/04/10 01:57:16;;;;;;;1.33;1.00;;;7.90;99.90;;;;;;5007499;28;20231;-66
2023/04/10 01:59:47;;;;;;;0.75;0.75;;;8.00;99.90;;;;;;5005201;28;20287;-66
2023/04/10 02:02:15;;;;;;;1.55;1.45;;;7.90;99.90;;;;;;5009240;28;20208;-66
2023/04/10 02:04:45;;;;;;;0.77;0.70;;;7.80;99.90;;;;;;5010844;28;20210;-65
2023/04/10 02:07:19;;;;;;;1.23;1.10;;;7.80;99.90;;;;;;4995992;28;20224;-66
2023/04/10 02:09:54;;;;;;;2.17;1.98;;;7.80;99.90;;;;;;5012088;28;20236;-66
2023/04/10 02:12:26;;;;;;;2.85;0.98;;;7.90;99.90;;;;;;5003194;28;20291;-65
2023/04/10 02:14:59;;;;;;;1.38;1.27;;;8.00;99.90;;;;;;5000146;28;20214;-64
2023/04/10 02:17:29;;;;;;;2.08;1.38;;;8.00;99.90;;;;;;5005147;28;20209;-66
2023/04/10 02:19:59;;;;;;;1.63;1.23;;;8.00;99.90;;;;;;5003286;28;20229;-64
2023/04/10 02:22:28;;;;;;;1.35;1.10;;;8.10;99.90;;;;;;5007777;28;20225;-66
2023/04/10 02:24:57;;;;;;;0.80;0.80;;;8.10;99.90;;;;;;5003857;28;20285;-64
2023/04/10 02:27:29;;;;;;;0.63;0.63;;;8.20;99.90;;;;;;4998287;28;20295;-65
2023/04/10 02:29:58;;;;;;;0.60;0.55;;;8.10;99.90;;;;;;4997696;28;20823;-64
2023/04/10 02:32:27;;;;;;;1.23;0.65;;;8.00;99.90;;;;;;5005227;28;20214;-65
2023/04/10 02:34:55;;;;;;;0.75;0.75;;;7.90;99.90;;;;;;5002689;28;20308;-65
2023/04/10 02:37:23;;;;;;;1.10;1.00;;;7.90;99.90;;;;;;5010599;28;20583;-65
2023/04/10 02:39:51;;;;;;;2.00;1.77;;;7.90;99.90;;;;;;5003477;28;20279;-66
2023/04/10 02:42:19;;;;;;;2.15;1.90;;;7.90;99.90;;;;;;5009181;28;20620;-65
2023/04/10 02:44:47;;;;;;;2.35;1.50;;;7.80;99.90;;;;;;4999423;28;20613;-66
2023/04/10 02:47:17;;;;;;;0.80;0.80;;;7.70;99.90;;;;;;5000571;28;20584;-65
2023/04/10 02:49:45;;;;;;;1.35;1.00;;;7.60;99.90;;;;;;5002438;28;20299;-65
2023/04/10 02:52:13;;;;;;;1.25;1.10;;;7.50;99.90;;;;;;5006705;28;20205;-65
2023/04/10 02:54:41;;;;;;;1.27;0.88;;;7.30;99.90;;;;;;5003110;28;20677;-67
2023/04/10 02:57:09;;;;;;;1.38;1.27;;;7.30;99.90;;;;;;5011115;28;20297;-65
2023/04/10 02:59:37;;;;;;;1.50;1.40;;;7.30;99.90;;;;;;5003150;28;20225;-64
2023/04/10 03:02:04;;;;;;;1.20;1.10;;;7.30;99.90;;;;;;5001212;28;20294;-65
2023/04/10 03:04:34;;;;;;;0.70;0.70;;;7.20;99.90;;;;;;4998949;28;20218;-64
2023/04/10 03:07:02;;;;;;;1.05;0.95;;;7.00;99.90;;;;;;5007187;28;20204;-63
2023/04/10 03:09:30;;;;;;;1.67;1.58;;;6.90;99.90;;;;;;4996558;28;20326;-65
2023/04/10 03:11:58;;;;;;;2.28;1.25;;;6.80;99.90;;;;;;5001239;28;20232;-64
2023/04/10 03:14:26;;;;;;;1.55;1.45;;;6.70;99.90;;;;;;5006626;28;20207;-66
2023/04/10 03:16:54;;;;;;;1.80;1.33;;;6.70;99.90;;;;;;4994320;28;20625;-66
2023/04/10 03:19:22;;;;;;;1.20;1.10;;;6.60;99.90;;;;;;4998069;28;20285;-65
2023/04/10 03:21:52;;;;;;;1.45;1.35;;;6.60;99.90;;;;;;5000850;28;20265;-65
2023/04/10 03:24:20;;;;;;;2.50;1.88;;;6.60;99.90;;;;;;5001877;28;20287;-65
2023/04/10 03:26:48;;;;;;;1.13;1.02;;;6.60;99.90;;;;;;5008894;28;20408;-65
2023/04/10 03:29:17;;;;;;;2.08;1.30;;;6.70;99.90;;;;;;5002056;28;20326;-65
2023/04/10 03:31:45;;;;;;;1.73;1.42;;;6.80;99.90;;;;;;5001796;28;20215;-65
2023/04/10 03:34:13;;;;;;;1.65;1.55;;;6.80;99.90;;;;;;4999826;28;20267;-66
2023/04/10 03:36:41;;;;;;;2.17;0.95;;;6.80;99.90;;;;;;5009850;28;20227;-66
2023/04/10 03:39:10;;;;;;;1.52;1.42;;;6.70;99.90;;;;;;5009543;28;20369;-66
2023/04/10 03:41:38;;;;;;;2.30;1.15;;;6.90;99.90;;;;;;5008065;28;20634;-67
2023/04/10 03:44:06;;;;;;;1.63;1.40;;;6.80;99.90;;;;;;5003740;28;20589;-66
2023/04/10 03:46:34;;;;;;;2.55;1.05;;;6.70;99.90;;;;;;4982094;28;20212;-67
2023/04/10 03:49:02;;;;;;;1.13;0.82;;;6.70;99.90;;;;;;4998880;28;20211;-65
2023/04/10 03:51:30;;;;;;;2.45;1.00;;;6.70;99.90;;;;;;5011572;28;20620;-66
2023/04/10 03:53:58;;;;;;;1.15;1.05;;;6.70;99.90;;;;;;5011979;28;20266;-66
2023/04/10 03:56:27;;;;;;;1.45;1.20;;;6.70;99.90;;;;;;5000913;28;20304;-66
2023/04/10 03:58:55;;;;;;;1.88;1.73;;;6.70;99.90;;;;;;5003313;28;20288;-66
2023/04/10 04:01:23;;;;;;;1.42;1.30;;;6.70;99.90;;;;;;5003590;28;20650;-66
2023/04/10 04:03:51;;;;;;;1.60;1.50;;;6.60;99.90;;;;;;4998264;28;20209;-67
2023/04/10 04:06:19;;;;;;;1.98;1.83;;;6.50;99.90;;;;;;5000891;28;20209;-66
2023/04/10 04:08:47;;;;;;;2.08;1.73;;;6.50;99.90;;;;;;5004875;28;20211;-67
2023/04/10 04:11:15;;;;;;;2.63;1.83;;;6.40;99.90;;;;;;5010594;28;20211;-66
2023/04/10 04:13:44;;;;;;;1.75;1.50;;;6.40;99.90;;;;;;5011638;28;20212;-67
2023/04/10 04:16:12;;;;;;;1.50;1.20;;;6.30;99.90;;;;;;5004092;28;20238;-67
2023/04/10 04:18:40;;;;;;;1.90;1.65;;;6.30;99.90;;;;;;5001487;28;20613;-67
2023/04/10 04:21:08;;;;;;;2.97;2.78;;;6.20;99.90;;;;;;5005543;28;20699;-66
2023/04/10 04:23:36;;;;;;;1.60;1.50;;;6.20;99.90;;;;;;5002704;28;20255;-66
2023/04/10 04:26:04;;;;;;;1.38;1.10;;;6.20;99.90;;;;;;5006017;28;20204;-65
2023/04/10 04:28:32;;;;;;;2.72;2.53;;;6.30;99.90;;;;;;5007373;28;20212;-66
2023/04/10 04:31:01;;;;;;;1.88;1.75;;;6.20;99.90;;;;;;5008469;28;20317;-67
2023/04/10 04:33:29;;;;;;;2.45;1.63;;;6.10;99.90;;;;;;5006841;28;20287;-67
2023/04/10 04:35:57;;;;;;;2.03;1.00;;;6.30;99.90;;;;;;5009929;28;20724;-66
2023/04/10 04:38:25;;;;;;;1.52;1.38;;;6.20;99.90;;;;;;5005526;28;20199;-66
2023/04/10 04:40:53;;;;;;;1.95;1.70;;;6.20;99.90;;;;;;5001523;28;21030;-65
2023/04/10 04:43:20;;;;;;;2.85;1.63;;;6.10;99.90;;;;;;5002785;28;20639;-65
2023/04/10 04:45:48;;;;;;;2.42;1.70;;;6.10;99.90;;;;;;5002764;28;20256;-65
2023/04/10 04:48:18;;;;;;;1.60;1.23;;;6.00;99.90;;;;;;4998569;28;20696;-64
2023/04/10 04:50:46;;;;;;;2.13;1.92;;;6.10;99.90;;;;;;5002683;28;20242;-65
2023/04/10 04:53:13;;;;;;;2.95;2.00;;;6.10;99.90;;;;;;5003321;28;20216;-65
2023/04/10 04:55:41;;;;;;;2.13;1.95;;;6.10;99.90;;;;;;5001075;28;20313;-65
2023/04/10 04:58:09;;;;;;;3.80;2.10;;;6.10;99.90;;;;;;5004659;28;20291;-65
2023/04/10 05:00:37;;;;;;;2.17;1.90;;;6.10;99.90;;;;;;5005595;28;20736;-65
2023/04/10 05:03:05;;;;;;;2.20;2.00;;;6.10;99.90;;;;;;5004899;28;20243;-65
2023/04/10 05:05:35;;;;;;;2.03;1.55;;;6.20;99.90;;;;;;5003741;28;20233;-66
2023/04/10 05:08:03;;;;;;;2.00;1.52;;;6.20;99.90;;;;;;5000724;28;20199;-65
2023/04/10 05:10:31;;;;;;;2.58;1.85;;;6.30;99.90;;;;;;4979842;28;20705;-65
2023/04/10 05:12:59;;;;;;;2.17;1.58;;;6.30;99.90;;;;;;5002501;28;20213;-65
2023/04/10 05:15:27;;;;;;;7.60;2.65;;;6.30;99.90;;;;;;5003040;28;20206;-66
2023/04/10 05:17:55;;;;;;;2.55;2.25;;;6.40;99.90;;;;;;4998743;28;20773;-65
2023/04/10 05:20:23;;;;;;;2.53;1.63;;;6.50;99.90;;;;;;4999196;28;20311;-65
2023/04/10 05:22:52;;;;;;;2.35;1.40;;;6.50;99.90;;;;;;5000001;28;20213;-65
2023/04/10 05:25:20;;;;;;;1.13;1.02;;;6.40;99.90;;;;;;4999957;28;20211;-66
2023/04/10 05:27:48;;;;;;;1.90;1.27;;;6.50;99.90;;;;;;5003884;28;20336;-65
2023/04/10 05:30:16;;;;;;;2.78;2.15;;;6.50;99.90;;;;;;5001715;28;20271;-65
2023/04/10 05:32:44;;;;;;;3.28;1.95;;;6.50;99.90;;;;;;5001107;28;20302;-65
2023/04/10 05:35:12;;;;;;;1.95;1.67;;;6.60;99.90;;;;;;5004328;28;20209;-66
2023/04/10 05:37:40;;;;;;;1.63;1.52;;;6.70;99.90;;;;;;5006273;28;20232;-67
2023/04/10 05:40:10;;;;;;;2.05;1.85;;;6.70;99.90;;;;;;4999874;28;20310;-66
2023/04/10 05:42:38;;;;;;;1.63;1.52;;;6.80;99.90;;;;;;5004353;28;20235;-67
2023/04/10 05:45:07;;;;;;;1.60;1.33;;;6.80;99.90;;;;;;5003500;28;20295;-67
2023/04/10 05:47:35;;;;;;;1.35;1.25;;;6.90;99.90;;;;;;5004623;28;20289;-67
2023/04/10 05:50:03;;;;;;;3.45;1.45;;;6.90;99.90;;;;;;5005155;28;20334;-66
2023/04/10 05:52:31;;;;;;;2.47;2.38;;;7.10;99.90;;;;;;5003564;28;20339;-66
2023/04/10 05:54:59;;;;;;;1.90;1.63;;;7.20;99.90;;;;;;5005850;28;20292;-67
2023/04/10 05:57:29;;;;;;;3.53;1.73;;;7.30;99.90;;;;;;5002267;28;20231;-66
2023/04/10 05:59:57;;;;;;;1.75;1.65;;;7.30;99.90;;;;;;5004670;28;20247;-66
2023/04/10 06:02:26;;;;;;;2.05;1.85;;;7.30;99.90;;;;;;5004687;28;20204;-66
2023/04/10 06:04:54;;;;;;;1.83;1.15;;;7.40;99.90;;;;;;5004459;28;20573;-66
2023/04/10 06:07:22;;;;;;;1.00;0.90;;;7.30;99.90;;;;;;5004287;28;20205;-66
2023/04/10 06:09:50;;;;;;;1.70;1.05;;;7.40;99.90;;;;;;5003619;28;20759;-66
2023/04/10 06:12:18;;;;;;;2.97;1.80;;;7.50;99.90;;;;;;5001360;28;20235;-66
2023/04/10 06:14:47;;;;;;;1.52;1.40;;;7.50;99.90;;;;;;5004372;28;20699;-68
2023/04/10 06:17:15;;;;;;;1.75;1.63;;;7.60;99.90;;;;;;5003464;28;20247;-66
2023/04/10 06:19:43;;;;;;;1.60;1.30;;;7.70;99.90;;;;;;5002792;28;20314;-66
2023/04/10 06:22:11;;;;;;;1.95;1.85;;;7.80;99.90;;;;;;5003819;28;20236;-65
2023/04/10 06:24:39;;;;;;;1.23;1.13;;;7.90;99.90;;;;;;5007506;28;20208;-66
2023/04/10 06:27:07;;;;;;;1.85;1.75;;;7.90;99.90;;;;;;5003796;28;20202;-66
2023/04/10 06:29:35;;;;;;;2.45;1.00;;;7.90;99.90;;;;;;5004719;28;20237;-67
2023/04/10 06:32:04;;;;;;;2.45;1.75;;;8.00;99.90;;;;;;5002480;28;20585;-66
2023/04/10 06:34:32;;;;;;;1.60;1.33;;;8.10;99.90;;;;;;5001213;28;20679;-65
2023/04/10 06:37:00;;;;;;;1.88;1.38;;;8.10;99.90;;;;;;5000306;28;20304;-65
2023/04/10 06:39:28;;;;;;;1.55;1.10;;;8.10;99.90;;;;;;5004747;28;20309;-66
2023/04/10 06:41:56;;;;;;;1.90;1.52;;;8.20;99.90;;;;;;5002939;28;20292;-65
2023/04/10 06:44:24;;;;;;;1.33;1.20;;;8.30;99.90;;;;;;5003483;28;20268;-65
2023/04/10 06:46:52;;;;;;;1.55;1.45;;;8.30;99.90;;;;;;5002077;28;20231;-66
2023/04/10 06:49:21;;;;;;;1.65;1.55;;;8.40;99.90;;;;;;5004108;28;20225;-66
2023/04/10 06:51:49;;;;;;;1.27;1.17;;;8.40;99.90;;;;;;5002083;28;20205;-66
2023/04/10 06:54:17;;;;;;;1.23;1.13;;;8.40;99.90;;;;;;4999397;28;20201;-66
2023/04/10 06:56:45;;;;;;;2.88;1.92;;;8.50;99.90;;;;;;5001700;28;20235;-66
2023/04/10 06:59:13;;;;;;;0.90;0.90;;;8.50;99.90;;;;;;5002899;28;20305;-65
2023/04/10 07:01:41;;;;;;;2.70;1.63;;;8.60;99.90;;;;;;5000681;28;20243;-64
2023/04/10 07:04:09;;;;;;;1.58;1.48;;;8.70;99.90;;;;;;5002104;28;20569;-66
2023/04/10 07:06:38;;;;;;;1.33;1.10;;;8.80;99.90;;;;;;5002373;28;20589;-66
2023/04/10 07:09:06;;;;;;;3.90;2.22;;;8.80;99.90;;;;;;5001197;28;20201;-65
2023/04/10 07:11:34;;;;;;;1.50;1.23;;;8.80;99.90;;;;;;5001420;28;20212;-65
2023/04/10 07:14:02;;;;;;;1.40;1.08;;;9.00;99.90;;;;;;5002607;28;20221;-65
2023/04/10 07:16:30;;;;;;;1.23;1.13;;;9.20;99.90;;;;;;4999092;28;20213;-65
2023/04/10 07:18:58;;;;;;;1.40;1.30;;;9.30;99.90;;;;;;5003948;28;20271;-66
2023/04/10 07:21:26;;;;;;;1.98;1.05;;;9.40;99.90;;;;;;5005505;28;20214;-65
2023/04/10 07:23:56;;;;;;;1.80;1.45;;;9.50;99.90;;;;;;5005625;28;20696;-65
2023/04/10 07:26:24;;;;;;;1.17;1.08;;;9.70;99.90;;;;;;5006415;28;20235;-65
2023/04/10 07:28:52;;;;;;;1.73;0.82;;;9.80;99.90;;;;;;5006434;28;20235;-65
2023/04/10 07:31:20;;;;;;;0.70;0.70;;;9.90;99.90;;;;;;4963770;28;20210;-65
2023/04/10 07:33:48;;;;;;;2.78;1.75;;;10.10;99.90;;;;;;4967492;28;20294;-65
2023/04/10 07:36:16;;;;;;;2.20;1.73;;;10.20;99.90;;;;;;4966219;28;20217;-65
2023/04/10 07:38:45;;;;;;;1.60;1.35;;;10.30;99.90;;;;;;4966393;28;20301;-65
2023/04/10 07:41:14;;;;;;;1.63;1.20;;;10.40;99.90;;;;;;4965708;28;20313;-65
2023/04/10 07:43:42;;;;;;;1.50;1.35;;;10.60;99.90;;;;;;4964657;28;20302;-65
2023/04/10 07:46:09;;;;;;;1.17;0.98;;;10.80;99.90;;;;;;4966718;28;20691;-67
2023/04/10 07:48:38;;;;;;;2.65;2.25;;;10.90;99.90;;;;;;4967131;28;20648;-66
2023/04/10 07:51:08;;;;;;;1.70;1.42;;;11.10;99.90;;;;;;4969293;28;20222;-66
2023/04/10 07:53:36;;;;;;;0.88;0.75;;;11.00;99.90;;;;;;4967356;28;20246;-66
2023/04/10 07:56:04;;;;;;;1.42;1.33;;;11.20;99.90;;;;;;4964896;28;20234;-65
2023/04/10 07:58:34;;;;;;;0.70;0.65;;;11.40;99.90;;;;;;4963076;28;20221;-66
2023/04/10 08:01:02;;;;;;;1.13;1.02;;;11.60;99.90;;;;;;4966645;28;20345;-66
2023/04/10 08:03:30;;;;;;;1.40;1.10;;;11.60;99.90;;;;;;4964781;28;20276;-65
2023/04/10 08:05:58;;;;;;;3.20;1.15;;;11.70;99.90;;;;;;4965787;28;20691;-66
2023/04/10 08:08:26;;;;;;;2.05;1.92;;;11.90;99.90;;;;;;4960908;28;20293;-64
2023/04/10 08:10:54;;;;;;;0.73;0.73;;;12.10;99.90;;;;;;4963683;28;20229;-65
2023/04/10 08:13:22;;;;;;;0.70;0.70;;;12.40;99.90;;;;;;4966039;28;20691;-65
2023/04/10 08:15:51;;;;;;;1.17;0.90;;;12.60;99.90;;;;;;4961956;28;20447;-65
2023/04/10 08:18:19;;;;;;;1.40;1.30;;;12.80;99.90;;;;;;4963547;28;20223;-65
2023/04/10 08:20:47;;;;;;;1.35;1.25;;;12.90;99.90;;;;;;4961862;28;20225;-65
2023/04/10 08:23:14;;;;;;;1.40;1.30;;;13.20;99.90;;;;;;4966010;28;20723;-65
2023/04/10 08:25:47;;;;;;;2.47;1.00;;;13.40;99.90;;;;;;4970099;28;20210;-65
2023/04/10 08:28:15;;;;;;;1.55;1.45;;;13.60;99.90;;;;;;4963363;28;20198;-64
2023/04/10 08:30:43;;;;;;;1.42;1.33;;;13.80;99.90;;;;;;4995214;28;20245;-65
2023/04/10 08:33:12;;;;;;;1.55;1.02;;;14.10;99.90;;;;;;5008468;28;20721;-65
2023/04/10 08:35:40;;;;;;;1.02;0.93;;;14.40;99.90;;;;;;5002515;28;20634;-65
2023/04/10 08:38:08;;;;;;;0.93;0.82;;;14.40;99.90;;;;;;5004630;28;20218;-65
2023/04/10 08:40:43;;;;;;;1.30;0.65;;;14.50;99.90;;;;;;5005400;28;20220;-65
2023/04/10 08:43:11;;;;;;;1.35;1.10;;;14.80;99.90;;;;;;5007955;28;20764;-65
2023/04/10 08:45:41;;;;;;;0.98;0.88;;;14.90;99.90;;;;;;5008096;28;20202;-65
2023/04/10 08:48:13;;;;;;;1.45;1.33;;;14.90;99.90;;;;;;5005216;28;20240;-66
2023/04/10 08:50:42;;;;;;;0.88;0.65;;;15.00;99.90;;;;;;5004750;28;20308;-65
2023/04/10 08:53:12;;;;;;;1.02;0.88;;;15.20;99.90;;;;;;5006916;28;20685;-65
2023/04/10 08:55:40;;;;;;;1.00;0.90;;;15.20;99.90;;;;;;5007666;28;20212;-64
2023/04/10 08:58:10;;;;;;;1.63;1.30;;;15.20;99.90;;;;;;5004585;28;20237;-66
2023/04/10 09:00:39;;;;;;;0.70;0.60;;;15.50;99.90;;;;;;5005589;28;20218;-66
2023/04/10 09:03:10;;;;;;;1.25;0.80;;;15.80;99.90;;;;;;5005443;28;20233;-65
2023/04/10 09:05:40;;;;;;;0.60;0.50;;;16.00;99.90;;;;;;5001731;28;20240;-65
2023/04/10 09:08:09;;;;;;;1.48;1.27;;;16.30;99.90;;;;;;5002381;28;20268;-66
2023/04/10 09:10:38;;;;;;;0.80;0.65;;;16.40;99.90;;;;;;5000836;28;20237;-65
2023/04/10 09:13:05;;;;;;;1.25;1.15;;;16.60;99.90;;;;;;5001281;28;20656;-66
2023/04/10 09:15:55;;;;;;;0.60;0.50;;;16.90;99.90;;;;;;5005334;28;20281;-65
2023/04/10 09:18:39;;;;;;;0.70;0.70;;;16.90;99.30;;;;;;5000374;28;20248;-66
2023/04/10 09:21:10;;;;;;;1.27;0.95;;;17.00;99.50;;;;;;5004490;28;20408;-64
2023/04/10 09:23:37;;;;;;;0.60;0.47;;;17.20;99.00;;;;;;5002442;28;20293;-65
2023/04/10 09:26:28;;;;;;;0.60;0.40;;;17.30;98.90;;;;;;4998292;28;20237;-66
2023/04/10 09:28:58;;;;;;;1.25;1.05;;;17.60;98.70;;;;;;5002636;28;20198;-66
2023/04/10 09:31:29;;;;;;;0.88;0.55;;;17.80;98.10;;;;;;5005157;28;20228;-66
2023/04/10 09:34:13;;;;;;;1.45;0.95;;;17.70;97.60;;;;;;4996820;28;20279;-66
2023/04/10 09:36:43;;;;;;;1.50;0.90;;;17.80;97.80;;;;;;5003847;28;20232;-66
2023/04/10 09:39:12;;;;;;;0.70;0.60;;;17.70;96.50;;;;;;5004716;28;20797;-66
2023/04/10 09:41:50;;;;;;;0.63;0.50;;;17.40;96.70;;;;;;5004392;28;20213;-67
2023/04/10 09:44:27;;;;;;;1.00;0.90;;;17.30;98.30;;;;;;5000861;28;20288;-66
2023/04/10 09:46:55;;;;;;;1.33;1.02;;;17.40;96.90;;;;;;5002881;28;20339;-66
2023/04/10 09:49:23;;;;;;;0.73;0.55;;;17.60;95.60;;;;;;5002845;28;20236;-65
2023/04/10 09:51:52;;;;;;;0.80;0.70;;;17.40;96.20;;;;;;5006610;28;20205;-66
2023/04/10 09:54:36;;;;;;;1.45;0.80;;;17.60;96.20;;;;;;5002082;28;20693;-65
2023/04/10 09:57:06;;;;;;;0.60;0.50;;;17.80;97.00;;;;;;5005073;28;20263;-66
2023/04/10 09:59:37;;;;;;;0.65;0.65;;;17.70;96.20;;;;;;5006371;28;20225;-66
2023/04/10 10:02:08;;;;;;;0.60;0.60;;;17.80;97.00;;;;;;5003718;28;20209;-66
2023/04/10 10:04:39;;;;;;;1.08;0.75;;;18.20;95.60;;;;;;5002421;28;20208;-65
2023/04/10 10:07:09;;;;;;;1.17;1.08;;;18.60;95.50;;;;;;5004320;28;20215;-66
2023/04/10 10:09:37;;;;;;;0.70;0.68;;;19.00;95.80;;;;;;5002478;28;20300;-66
2023/04/10 10:12:05;;;;;;;1.05;0.88;;;19.10;93.70;;;;;;4999415;28;20294;-66
2023/04/10 10:14:36;;;;;;;0.70;0.60;;;19.00;93.20;;;;;;4996810;28;20275;-66
2023/04/10 10:17:09;;;;;;;0.82;0.70;;;19.00;93.30;;;;;;5000517;28;20313;-66
2023/04/10 10:19:42;;;;;;;0.60;0.52;;;19.00;94.60;;;;;;5000170;28;20233;-66
2023/04/10 10:22:12;;;;;;;1.80;1.27;;;19.40;94.70;;;;;;4999461;28;20205;-66
2023/04/10 10:24:46;;;;;;;0.60;0.55;;;19.90;94.00;;;;;;5000660;28;20677;-66
2023/04/10 10:27:16;;;;;;;0.60;0.50;;;19.70;92.60;;;;;;5007207;28;20316;-66
2023/04/10 10:29:46;;;;;;;0.60;0.47;;;19.90;93.20;;;;;;5007005;28;20596;-67
2023/04/10 10:32:16;;;;;;;0.63;0.63;;;20.10;92.20;;;;;;5002479;28;20868;-66
2023/04/10 10:34:46;;;;;;;0.70;0.70;;;20.00;91.00;;;;;;4998545;28;20229;-65
2023/04/10 10:37:16;;;;;;;0.75;0.75;;;19.70;92.10;;;;;;5003418;28;20296;-66
2023/04/10 10:39:53;;;;;;;0.90;0.73;;;19.60;91.10;;;;;;5007940;28;20240;-66
2023/04/10 10:42:30;;;;;;;0.80;0.50;;;19.90;92.00;;;;;;5003695;28;20210;-66
2023/04/10 10:45:06;;;;;;;0.60;0.55;;;20.30;91.00;;;;;;5004315;28;20216;-66
2023/04/10 10:47:40;;;;;;;0.60;0.40;;;20.70;90.10;;;;;;5000186;28;20209;-67
2023/04/10 10:50:09;;;;;;;1.23;0.70;;;20.20;89.20;;;;;;5003358;28;20985;-67
2023/04/10 10:52:41;;;;;;;1.23;1.13;;;20.20;89.00;;;;;;5002145;28;20265;-66
2023/04/10 10:55:30;;;;;;;0.80;0.60;;;20.30;88.50;;;;;;4999531;28;20611;-66
2023/04/10 10:58:00;;;;;;;0.60;0.40;;;20.70;91.00;;;;;;5004185;28;20570;-66
2023/04/10 11:01:02;;;;;;;0.60;0.50;;;21.10;90.20;;;;;;5003079;28;20238;-66
2023/04/10 11:03:30;;;;;;;0.60;0.40;;;21.40;86.10;;;;;;5006505;28;20677;-67
2023/04/10 11:05:59;;;;;;;0.60;0.40;;;21.00;85.80;;;;;;5000198;28;20206;-66
2023/04/10 11:08:45;;;;;;;1.42;0.70;;;20.70;83.60;;;;;;4997259;28;20292;-66
2023/04/10 11:11:17;;;;;;;0.82;0.60;;;20.50;82.50;;;;;;4999823;28;20263;-66
2023/04/10 11:14:22;;;;;;;0.60;0.40;;;20.50;81.60;;;;;;5001351;28;20248;-66
2023/04/10 11:16:50;;;;;;;0.70;0.60;;;19.90;79.70;;;;;;5003396;28;20208;-66
2023/04/10 11:19:20;;;;;;;0.50;0.40;;;19.60;81.30;;;;;;5004831;28;20233;-66
2023/04/10 11:22:07;;;;;;;0.50;0.40;;;19.50;81.50;;;;;;5004860;28;20206;-66
2023/04/10 11:25:09;;;;;;;0.60;0.50;;;19.40;82.70;;;;;;5001115;28;20220;-65
2023/04/10 11:27:42;;;;;;;0.60;0.55;;;19.40;81.10;;;;;;4953634;28;20256;-65
2023/04/10 11:30:35;;;;;;;0.50;0.40;;;19.10;79.70;;;;;;4994889;28;20261;-66
2023/04/10 11:33:05;;;;;;;0.60;0.50;;;19.20;80.20;;;;;;5000324;28;20213;-66
2023/04/10 11:35:33;;;;;;;0.60;0.52;;;19.20;79.70;;;;;;5004544;28;20214;-66
2023/04/10 11:38:11;;;;;;;0.70;0.50;;;19.40;78.30;;;;;;5007710;28;20232;-66
2023/04/10 11:41:02;;;;;;;0.80;0.80;;;19.30;78.60;;;;;;5004814;28;20251;-67
2023/04/10 11:43:32;;;;;;;0.60;0.50;;;19.10;79.20;;;;;;5004417;28;20241;-66
2023/04/10 11:46:05;;;;;;;0.50;0.40;;;19.10;79.50;;;;;;4996578;28;20205;-66
2023/04/10 11:48:34;;;;;;;0.70;0.50;;;19.10;76.70;;;;;;5000790;28;20209;-66
2023/04/10 11:51:10;;;;;;;0.60;0.30;;;19.00;78.10;;;;;;5003362;28;20229;-65
2023/04/10 11:53:38;;;;;;;1.02;0.80;;;18.80;76.20;;;;;;5003397;28;21130;-66
2023/04/10 11:56:19;;;;;;;0.60;0.45;;;18.70;76.20;;;;;;5000039;28;20209;-66
2023/04/10 11:58:51;;;;;;;0.70;0.43;;;18.70;77.40;;;;;;5006748;28;20339;-66
2023/04/10 12:01:22;;;;;;;0.60;0.60;;;18.40;75.70;;;;;;5007030;28;20217;-66
2023/04/10 12:03:50;;;;;;;0.70;0.50;;;18.20;74.20;;;;;;5007374;28;20211;-66
2023/04/10 12:06:19;;;;;;;0.55;0.38;;;18.00;74.40;;;;;;5012396;28;20640;-66
2023/04/10 12:08:49;;;;;;;0.50;0.30;;;18.00;77.40;;;;;;5006216;28;20208;-66
2023/04/10 12:11:20;;;;;;;0.60;0.47;;;18.20;79.80;;;;;;5002517;28;20201;-66
2023/04/10 12:13:48;;;;;;;0.85;0.80;;;18.70;78.60;;;;;;5009739;28;20201;-66
2023/04/10 12:16:16;;;;;;;1.08;0.93;;;18.90;79.30;;;;;;5011075;28;20276;-66
2023/04/10 12:18:44;;;;;;;0.50;0.40;;;18.80;76.80;;;;;;5008723;28;20228;-67
2023/04/10 12:21:12;;;;;;;0.50;0.40;;;19.00;76.60;;;;;;5000231;28;21489;-65
2023/04/10 12:23:40;;;;;;;0.60;0.40;;;19.20;77.30;;;;;;5003357;28;20287;-65
2023/04/10 12:26:12;;;;;;;0.60;0.40;;;19.70;77.60;;;;;;5004992;28;20205;-65
2023/04/10 12:28:49;;;;;;;0.60;0.45;;;20.10;77.30;;;;;;5003541;28;20202;-65
2023/04/10 12:31:17;;;;;;;0.90;0.63;;;20.40;77.30;;;;;;5004352;28;20260;-64
2023/04/10 12:33:46;;;;;;;0.60;0.45;;;20.50;78.00;;;;;;5001503;28;20213;-64
2023/04/10 12:36:21;;;;;;;0.60;0.47;;;20.70;78.20;;;;;;4999987;28;20242;-64
2023/04/10 12:38:50;;;;;;;0.88;0.50;;;20.60;76.70;;;;;;5002091;28;20228;-65
2023/04/10 12:41:22;;;;;;;0.60;0.40;;;20.70;77.90;;;;;;5000200;28;20261;-65
2023/04/10 12:43:51;;;;;;;0.60;0.50;;;20.70;78.80;;;;;;5002868;28;22236;-64
2023/04/10 12:46:24;;;;;;;0.90;0.60;;;20.60;77.80;;;;;;5004689;28;20362;-64
2023/04/10 12:48:52;;;;;;;0.80;0.80;;;20.40;77.60;;;;;;5005527;28;20226;-64
2023/04/10 12:51:40;;;;;;;0.60;0.45;;;20.00;78.40;;;;;;5007873;28;20213;-66
2023/04/10 12:54:08;;;;;;;0.70;0.65;;;19.90;78.50;;;;;;5007494;28;20210;-65
2023/04/10 12:56:41;;;;;;;0.93;0.50;;;19.70;78.30;;;;;;5000507;28;20675;-64
2023/04/10 12:59:11;;;;;;;0.60;0.50;;;19.50;79.90;;;;;;5002162;28;20229;-66
2023/04/10 13:01:39;;;;;;;0.70;0.52;;;19.60;80.40;;;;;;4999886;28;20217;-66
2023/04/10 13:04:07;;;;;;;0.70;0.50;;;19.70;80.60;;;;;;5002546;28;20247;-66
2023/04/10 13:06:42;;;;;;;0.60;0.40;;;19.80;79.70;;;;;;5000960;28;20202;-65
2023/04/10 13:09:10;;;;;;;0.80;0.60;;;20.10;79.60;;;;;;5002263;28;20227;-66